createdAt,value
2019-03-12T00:00:14.024Z,97919.30
2019-03-12T00:02:42.418Z,97923.13
2019-03-12T00:05:10.816Z,97921.45
2019-03-12T00:07:39.213Z,97928.66
2019-03-12T00:10:08.843Z,97924.40
2019-03-12T00:12:37.261Z,97860.42
2019-03-12T00:15:06.917Z,97938.04
2019-03-12T00:17:35.295Z,97940.17
2019-03-12T00:20:05.020Z,97946.55
2019-03-12T00:22:33.409Z,97941.86
2019-03-12T00:25:01.797Z,97940.17
2019-03-12T00:27:30.181Z,97940.58
2019-03-12T00:29:58.575Z,97944.84
2019-03-12T00:32:26.964Z,97953.78
2019-03-12T00:34:55.357Z,97955.91
2019-03-12T00:37:23.746Z,97956.80
2019-03-12T00:39:52.174Z,97959.34
2019-03-12T00:42:20.566Z,97969.55
2019-03-12T00:44:48.971Z,97966.13
2019-03-12T00:47:17.372Z,97978.89
2019-03-12T00:49:45.796Z,97987.42
2019-03-12T00:52:14.183Z,97989.97
2019-03-12T00:54:42.567Z,97994.63
2019-03-12T00:57:10.952Z,98001.84
2019-03-12T00:59:39.341Z,98009.49
2019-03-12T01:02:07.725Z,98004.80
2019-03-12T01:04:36.116Z,98006.05
2019-03-12T01:07:04.501Z,98017.11
2019-03-12T01:09:32.899Z,98018.76
2019-03-12T01:12:01.292Z,98026.39
2019-03-12T01:14:29.688Z,98031.92
2019-03-12T01:16:58.141Z,98032.34
2019-03-12T01:19:26.532Z,98028.93
2019-03-12T01:21:54.931Z,98031.48
2019-03-12T01:24:23.311Z,98040.42
2019-03-12T01:26:51.712Z,98041.33
2019-03-12T01:29:20.102Z,98052.81
2019-03-12T01:31:48.484Z,98056.21
2019-03-12T01:34:16.901Z,98055.80
2019-03-12T01:36:45.292Z,98044.25
2019-03-12T01:39:13.877Z,98059.63
2019-03-12T01:41:42.267Z,98069.47
2019-03-12T01:44:10.655Z,98070.73
2019-03-12T01:46:39.188Z,98072.91
2019-03-12T01:49:07.507Z,98069.09
2019-03-12T01:51:35.896Z,98083.55
2019-03-12T01:54:04.346Z,98083.16
2019-03-12T01:56:32.832Z,98089.55
2019-03-12T01:59:01.194Z,98105.73
2019-03-12T02:01:29.583Z,98098.09
2019-03-12T02:03:58.039Z,98107.89
2019-03-12T02:06:26.430Z,98110.45
2019-03-12T02:08:54.820Z,98115.14
2019-03-12T02:11:23.226Z,98117.30
2019-03-12T02:13:51.619Z,98116.03
2019-03-12T02:16:20.006Z,98117.32
2019-03-12T02:18:48.389Z,98128.83
2019-03-12T02:21:16.846Z,98131.41
2019-03-12T02:23:45.234Z,98143.32
2019-03-12T02:26:13.697Z,98144.16
2019-03-12T02:28:42.148Z,98154.00
2019-03-12T02:31:10.527Z,98149.31
2019-03-12T02:33:38.919Z,98149.74
2019-03-12T02:36:07.297Z,98161.67
2019-03-12T02:38:35.686Z,98167.20
2019-03-12T02:41:04.201Z,98164.24
2019-03-12T02:43:32.589Z,98162.97
2019-03-12T02:46:00.975Z,98162.97
2019-03-12T02:48:29.362Z,98166.80
2019-03-12T02:50:57.792Z,98174.02
2019-03-12T02:53:26.168Z,98096.66
2019-03-12T02:55:54.982Z,98174.02
2019-03-12T02:58:23.424Z,98179.95
2019-03-12T03:00:51.819Z,98185.49
2019-03-12T03:03:20.235Z,98188.50
2019-03-12T03:05:52.694Z,98188.50
2019-03-12T03:08:22.727Z,98192.72
2019-03-12T03:10:51.186Z,98194.85
2019-03-12T03:13:19.596Z,98201.20
2019-03-12T03:15:48.051Z,98205.45
2019-03-12T03:18:16.433Z,98212.22
2019-03-12T03:20:44.831Z,98217.74
2019-03-12T03:23:13.256Z,98216.03
2019-03-12T03:25:41.684Z,98219.02
2019-03-12T03:28:10.098Z,98221.57
2019-03-12T03:30:38.702Z,98217.30
2019-03-12T03:33:07.114Z,98224.13
2019-03-12T03:35:35.575Z,98223.30
2019-03-12T03:38:04.058Z,98227.98
2019-03-12T03:40:32.451Z,98222.88
2019-03-12T03:43:00.839Z,98235.22
2019-03-12T03:45:29.210Z,98229.28
2019-03-12T03:47:57.716Z,98226.73
2019-03-12T03:50:26.149Z,98228.02
2019-03-12T03:52:54.535Z,98232.28
2019-03-12T03:55:23.400Z,98242.50
2019-03-12T03:57:51.841Z,98240.78
2019-03-12T04:00:22.345Z,98241.22
2019-03-12T04:02:50.763Z,98245.47
2019-03-12T04:05:19.311Z,98235.69
2019-03-12T04:07:47.807Z,98243.76
2019-03-12T04:10:16.793Z,98256.13
2019-03-12T04:12:45.636Z,98261.65
2019-03-12T04:15:15.883Z,98270.60
2019-03-12T04:17:44.291Z,98268.92
2019-03-12T04:20:15.044Z,98262.54
2019-03-12T04:22:43.438Z,98265.94
2019-03-12T04:25:12.086Z,98271.48
2019-03-12T04:27:40.570Z,98269.32
2019-03-12T04:30:17.881Z,98263.36
2019-03-12T04:32:46.270Z,98264.19
2019-03-12T04:35:23.499Z,98260.38
2019-03-12T04:37:51.945Z,98255.66
2019-03-12T04:40:20.342Z,98262.45
2019-03-12T04:42:48.728Z,98261.59
2019-03-12T04:45:17.616Z,98264.98
2019-03-12T04:47:46.106Z,98257.30
2019-03-12T04:50:15.056Z,98261.56
2019-03-12T04:52:43.448Z,98264.95
2019-03-12T04:55:15.703Z,98267.50
2019-03-12T04:57:44.251Z,98272.16
2019-03-12T05:00:20.382Z,98278.55
2019-03-12T05:02:48.793Z,98274.71
2019-03-12T05:05:17.172Z,98276.85
2019-03-12T05:07:45.556Z,98277.25
2019-03-12T05:10:17.109Z,98275.58
2019-03-12T05:12:46.128Z,98275.12
2019-03-12T05:15:18.580Z,98277.70
2019-03-12T05:17:47.038Z,98275.12
2019-03-12T05:20:15.962Z,98280.68
2019-03-12T05:22:44.359Z,98276.39
2019-03-12T05:25:14.025Z,98276.82
2019-03-12T05:27:42.586Z,98285.75
2019-03-12T05:30:19.196Z,98290.84
2019-03-12T05:32:47.671Z,98293.80
2019-03-12T05:35:16.064Z,98301.45
2019-03-12T05:37:44.541Z,98305.73
2019-03-12T05:40:16.167Z,98310.41
2019-03-12T05:42:44.589Z,98309.14
2019-03-12T05:45:18.989Z,98303.64
2019-03-12T05:47:47.377Z,98312.59
2019-03-12T05:50:20.482Z,98315.15
2019-03-12T05:52:49.639Z,98313.44
2019-03-12T05:55:18.214Z,98314.28
2019-03-12T05:57:46.705Z,98319.84
2019-03-12T06:00:21.436Z,98319.41
2019-03-12T06:02:49.927Z,98319.42
2019-03-12T06:05:18.475Z,98325.41
2019-03-12T06:07:46.872Z,98325.41
2019-03-12T06:10:15.920Z,98327.10
2019-03-12T06:12:44.431Z,98322.02
2019-03-12T06:15:14.891Z,98322.45
2019-03-12T06:17:43.279Z,98325.46
2019-03-12T06:20:13.874Z,98331.43
2019-03-12T06:22:42.397Z,98334.83
2019-03-12T06:25:11.228Z,98334.43
2019-03-12T06:27:39.621Z,98334.43
2019-03-12T06:30:11.057Z,98340.81
2019-03-12T06:32:43.758Z,98331.46
2019-03-12T06:35:13.520Z,98348.48
2019-03-12T06:37:49.055Z,98346.37
2019-03-12T06:40:28.043Z,98349.78
2019-03-12T06:43:14.465Z,98346.83
2019-03-12T06:45:44.491Z,98345.16
2019-03-12T06:48:14.517Z,98343.48
2019-03-12T06:50:44.543Z,98346.91
2019-03-12T06:53:16.986Z,98343.50
2019-03-12T06:55:49.971Z,98345.22
2019-03-12T06:58:26.015Z,98342.70
2019-03-12T07:00:56.052Z,98344.42
2019-03-12T07:03:26.071Z,98341.48
2019-03-12T07:05:56.106Z,98348.31
2019-03-12T07:08:28.999Z,98344.51
2019-03-12T07:11:11.031Z,98341.16
2019-03-12T07:13:41.078Z,98343.75
2019-03-12T07:16:11.107Z,98346.77
2019-03-12T07:18:49.585Z,98345.52
2019-03-12T07:21:19.617Z,98349.39
2019-03-12T07:23:58.646Z,98346.84
2019-03-12T07:26:31.959Z,98353.26
2019-03-12T07:29:04.953Z,98357.11
2019-03-12T07:31:37.580Z,98349.44
2019-03-12T07:34:10.033Z,98348.17
2019-03-12T07:36:48.763Z,98348.20
2019-03-12T07:39:24.509Z,98354.63
2019-03-12T07:41:54.528Z,98345.69
2019-03-12T07:44:40.768Z,98347.00
2019-03-12T07:47:10.774Z,98351.25
2019-03-12T07:49:40.799Z,98348.27
2019-03-12T07:52:28.712Z,98343.59
2019-03-12T07:55:10.982Z,98349.59
2019-03-12T07:57:50.108Z,98345.34
2019-03-12T08:00:20.132Z,98345.38
2019-03-12T08:02:59.321Z,98346.69
2019-03-12T08:05:29.378Z,98345.43
2019-03-12T08:08:01.855Z,98345.88
2019-03-12T08:10:34.609Z,98342.49
2019-03-12T08:13:04.623Z,98347.63
2019-03-12T08:15:52.869Z,98334.42
2019-03-12T08:18:31.832Z,98339.13
2019-03-12T08:21:22.672Z,98342.58
2019-03-12T08:23:54.397Z,98332.77
2019-03-12T08:26:24.441Z,98333.23
2019-03-12T08:29:00.157Z,98328.14
2019-03-12T08:31:39.023Z,98323.89
2019-03-12T08:34:14.566Z,98321.36
2019-03-12T08:36:50.455Z,98316.28
2019-03-12T08:39:26.267Z,98313.75
2019-03-12T08:41:59.123Z,98311.23
2019-03-12T08:44:37.546Z,98306.09
2019-03-12T08:47:06.998Z,98304.42
2019-03-12T08:49:43.005Z,98303.56
2019-03-12T08:52:21.623Z,98303.58
2019-03-12T08:55:09.797Z,98305.33
2019-03-12T08:57:51.835Z,98302.36
2019-03-12T09:00:24.145Z,98292.53
2019-03-12T09:02:59.390Z,98293.41
2019-03-12T09:05:32.101Z,98289.13
2019-03-12T09:08:02.149Z,98286.55
2019-03-12T09:10:32.182Z,98281.85
2019-03-12T09:13:02.202Z,98283.56
2019-03-12T09:15:32.222Z,98278.84
2019-03-12T09:18:02.239Z,98284.84
2019-03-12T09:20:32.264Z,98280.12
2019-03-12T09:23:02.313Z,98269.04
2019-03-12T09:25:47.424Z,98272.02
2019-03-12T09:28:20.048Z,98269.47
2019-03-12T09:30:52.831Z,98269.03
2019-03-12T09:33:37.926Z,98261.78
2019-03-12T09:36:24.378Z,98263.47
2019-03-12T09:38:54.408Z,98262.19
2019-03-12T09:41:24.453Z,98260.90
2019-03-12T09:46:49.133Z,98255.78
2019-03-12T09:49:19.265Z,98254.49
2019-03-12T09:51:58.302Z,98250.24
2019-03-12T09:54:31.025Z,98248.95
2019-03-12T09:57:01.057Z,98230.13
2019-03-12T09:59:37.287Z,98239.53
2019-03-12T10:02:19.641Z,98233.11
2019-03-12T10:04:52.319Z,98232.22
2019-03-12T10:07:22.341Z,98236.05
2019-03-12T10:10:04.337Z,98226.63
2019-03-12T10:12:36.960Z,98229.20
2019-03-12T10:15:14.517Z,98234.33
2019-03-12T10:17:53.520Z,98220.66
2019-03-12T10:20:35.634Z,98219.36
2019-03-12T10:23:05.658Z,98217.23
2019-03-12T10:25:51.935Z,98216.80
2019-03-12T10:28:24.639Z,98217.64
2019-03-12T10:30:57.647Z,98209.93
2019-03-12T10:33:33.478Z,98211.21
2019-03-12T10:36:06.546Z,98206.52
2019-03-12T10:38:59.283Z,98202.23
2019-03-12T10:41:29.310Z,98200.53
2019-03-12T10:43:59.351Z,98196.69
2019-03-12T10:46:29.371Z,98190.27
2019-03-12T10:48:57.830Z,98183.39
2019-03-12T10:51:26.314Z,98189.36
2019-03-12T10:53:54.704Z,98182.92
2019-03-12T10:56:23.141Z,98173.08
2019-03-12T10:58:51.546Z,98167.05
2019-03-12T11:01:19.944Z,98162.33
2019-03-12T11:03:48.435Z,98154.13
2019-03-12T11:06:16.894Z,98150.25
2019-03-12T11:08:45.278Z,98148.08
2019-03-12T11:11:13.655Z,98144.65
2019-03-12T11:13:42.155Z,98145.91
2019-03-12T11:16:10.818Z,98135.66
2019-03-12T11:18:39.226Z,98122.80
2019-03-12T11:21:07.608Z,98124.54
2019-03-12T11:23:35.989Z,98118.58
2019-03-12T11:26:04.455Z,98100.66
2019-03-12T11:28:33.052Z,98105.78
2019-03-12T11:31:01.435Z,98100.60
2019-03-12T11:33:29.821Z,98100.20
2019-03-12T11:35:58.269Z,98096.36
2019-03-12T11:38:26.644Z,98086.95
2019-03-12T11:40:55.499Z,98085.25
2019-03-12T11:43:23.867Z,98075.38
2019-03-12T11:45:52.330Z,98069.34
2019-03-12T11:48:20.744Z,98065.41
2019-03-12T11:50:49.241Z,98051.14
2019-03-12T11:53:17.667Z,98043.77
2019-03-12T11:55:46.238Z,98045.28
2019-03-12T11:58:14.755Z,98043.00
2019-03-12T12:00:44.893Z,98031.86
2019-03-12T12:03:13.531Z,98029.75
2019-03-12T12:05:42.025Z,98028.06
2019-03-12T12:08:10.420Z,98021.25
2019-03-12T12:10:38.840Z,98012.67
2019-03-12T12:13:07.338Z,98013.56
2019-03-12T12:15:35.866Z,98010.59
2019-03-12T12:18:05.785Z,98004.20
2019-03-12T12:20:34.168Z,98001.29
2019-03-12T12:23:02.556Z,97989.75
2019-03-12T12:25:31.054Z,97977.25
2019-03-12T12:27:59.466Z,97967.37
2019-03-12T12:30:27.927Z,97957.89
2019-03-12T12:32:56.388Z,97942.38
2019-03-12T12:35:24.773Z,97938.45
2019-03-12T12:37:53.154Z,97937.91
2019-03-12T12:40:22.586Z,97927.04
2019-03-12T12:42:51.047Z,97928.09
2019-03-12T12:45:28.142Z,97926.21
2019-03-12T12:47:56.526Z,97920.91
2019-03-12T12:50:25.088Z,97908.88
2019-03-12T12:52:53.471Z,97900.71
2019-03-12T12:55:21.936Z,97896.34
2019-03-12T12:57:50.318Z,97886.81
2019-03-12T13:00:20.762Z,97888.94
2019-03-12T13:02:49.446Z,97873.63
2019-03-12T13:05:18.337Z,97868.55
2019-03-12T13:07:46.855Z,97857.91
2019-03-12T13:10:26.657Z,97853.29
2019-03-12T13:12:55.124Z,97844.72
2019-03-12T13:15:23.588Z,97834.38
2019-03-12T13:17:52.203Z,97827.80
2019-03-12T13:20:20.765Z,97823.03
2019-03-12T13:22:49.160Z,97814.36
2019-03-12T13:25:18.950Z,97806.69
2019-03-12T13:27:47.383Z,97810.05
2019-03-12T13:30:23.162Z,97802.38
2019-03-12T13:32:51.644Z,97786.52
2019-03-12T13:35:20.498Z,97782.66
2019-03-12T13:37:49.476Z,97774.91
2019-03-12T13:40:25.380Z,97768.06
2019-03-12T13:42:53.921Z,97758.58
2019-03-12T13:45:32.359Z,97755.95
2019-03-12T13:48:00.867Z,97758.44
2019-03-12T13:50:29.320Z,97759.34
2019-03-12T13:52:57.976Z,97753.80
2019-03-12T13:55:26.612Z,97749.04
2019-03-12T13:57:55.489Z,97738.57
2019-03-12T14:00:25.109Z,97744.47
2019-03-12T14:02:53.859Z,97734.11
2019-03-12T14:05:22.403Z,97733.03
2019-03-12T14:07:50.794Z,97726.95
2019-03-12T14:10:28.438Z,97725.55
2019-03-12T14:12:57.595Z,97721.71
2019-03-12T14:15:34.094Z,97720.03
2019-03-12T14:18:02.629Z,97715.81
2019-03-12T14:20:43.125Z,97702.55
2019-03-12T14:23:16.958Z,97702.59
2019-03-12T14:25:45.499Z,97697.95
2019-03-12T14:28:13.880Z,97689.39
2019-03-12T14:30:42.831Z,97688.16
2019-03-12T14:33:11.344Z,97679.21
2019-03-12T14:35:50.873Z,97670.46
2019-03-12T14:38:10.495Z,97665.09
2019-03-12T14:40:38.860Z,97667.53
2019-03-12T14:43:07.405Z,97665.31
2019-03-12T14:45:39.041Z,97665.73
2019-03-12T14:48:09.834Z,97651.98
2019-03-12T14:50:38.200Z,97654.11
2019-03-12T14:53:21.375Z,97641.64
2019-03-12T14:55:42.253Z,97635.20
2019-03-12T14:58:10.651Z,97634.38
2019-03-12T15:00:39.032Z,97626.78
2019-03-12T15:03:07.414Z,97625.66
2019-03-12T15:05:35.821Z,97611.56
2019-03-12T15:08:05.714Z,97604.29
2019-03-12T15:10:34.084Z,97602.48
2019-03-12T15:13:02.550Z,97578.16
2019-03-12T15:15:30.972Z,97586.83
2019-03-12T15:17:59.350Z,97577.36
2019-03-12T15:20:27.721Z,97569.63
2019-03-12T15:22:56.106Z,97559.75
2019-03-12T15:25:24.501Z,97557.62
2019-03-12T15:27:52.886Z,97549.17
2019-03-12T15:30:23.409Z,97550.25
2019-03-12T15:32:51.835Z,97546.98
2019-03-12T15:35:20.245Z,97545.31
2019-03-12T15:37:48.622Z,97531.19
2019-03-12T15:40:17.086Z,97527.29
2019-03-12T15:42:45.730Z,97518.73
2019-03-12T15:45:17.109Z,97515.22
2019-03-12T15:47:45.529Z,97519.11
2019-03-12T15:50:15.162Z,97508.85
2019-03-12T15:52:43.545Z,97504.98
2019-03-12T15:55:12.066Z,97497.78
2019-03-12T15:57:40.446Z,97497.41
2019-03-12T16:00:16.501Z,97494.06
2019-03-12T16:02:44.916Z,97494.97
2019-03-12T16:05:13.439Z,97482.98
2019-03-12T16:07:41.820Z,97477.83
2019-03-12T16:10:12.716Z,97471.43
2019-03-12T16:12:41.162Z,97477.02
2019-03-12T16:15:11.352Z,97477.09
2019-03-12T16:17:39.738Z,97471.63
2019-03-12T16:20:13.332Z,97466.94
2019-03-12T16:22:41.782Z,97457.14
2019-03-12T16:25:11.008Z,97453.77
2019-03-12T16:27:39.496Z,97447.40
2019-03-12T16:30:13.178Z,97452.61
2019-03-12T16:32:41.653Z,97448.41
2019-03-12T16:35:10.756Z,97439.09
2019-03-12T16:37:39.155Z,97435.30
2019-03-12T16:40:18.519Z,97425.53
2019-03-12T16:42:46.968Z,97429.91
2019-03-12T16:45:16.993Z,97422.29
2019-03-12T16:47:45.421Z,97415.52
2019-03-12T16:50:18.409Z,97410.85
2019-03-12T16:52:46.811Z,97401.13
2019-03-12T16:55:18.760Z,97401.22
2019-03-12T16:57:47.145Z,97391.88
2019-03-12T17:00:20.391Z,97391.97
2019-03-12T17:02:48.806Z,97386.03
2019-03-12T17:05:17.273Z,97378.83
2019-03-12T17:07:45.657Z,97367.78
2019-03-12T17:10:19.213Z,97357.15
2019-03-12T17:12:47.687Z,97338.66
2019-03-12T17:15:21.025Z,97343.98
2019-03-12T17:17:49.480Z,97346.62
2019-03-12T17:20:18.527Z,97331.65
2019-03-12T17:22:46.984Z,97336.44
2019-03-12T17:25:15.440Z,97330.05
2019-03-12T17:27:43.828Z,97318.93
2019-03-12T17:30:19.862Z,97325.80
2019-03-12T17:32:48.315Z,97319.03
2019-03-12T17:35:22.423Z,97313.95
2019-03-12T17:37:50.876Z,97311.39
2019-03-12T17:40:21.006Z,97304.20
2019-03-12T17:42:49.534Z,97295.69
2019-03-12T17:45:17.970Z,97291.90
2019-03-12T17:47:46.463Z,97289.39
2019-03-12T17:50:14.969Z,97287.31
2019-03-12T17:52:43.358Z,97289.53
2019-03-12T17:55:13.684Z,97286.99
2019-03-12T17:57:42.240Z,97272.48
2019-03-12T18:00:30.567Z,97279.80
2019-03-12T18:02:58.964Z,97269.56
2019-03-12T18:05:27.515Z,97276.05
2019-03-12T18:07:55.906Z,97274.34
2019-03-12T18:10:24.364Z,97272.70
2019-03-12T18:12:52.760Z,97265.84
2019-03-12T18:15:24.095Z,97270.17
2019-03-12T18:17:52.545Z,97267.19
2019-03-12T18:20:22.079Z,97265.55
2019-03-12T18:22:50.545Z,97258.33
2019-03-12T18:25:24.723Z,97254.98
2019-03-12T18:27:53.108Z,97244.36
2019-03-12T18:30:21.565Z,97239.36
2019-03-12T18:32:49.953Z,97233.45
2019-03-12T18:35:18.376Z,97232.67
2019-03-12T18:37:46.928Z,97228.09
2019-03-12T18:40:22.831Z,97220.06
2019-03-12T18:42:51.353Z,97218.45
2019-03-12T18:45:30.629Z,97203.18
2019-03-12T18:47:59.051Z,97211.33
2019-03-12T18:50:27.500Z,97211.48
2019-03-12T18:52:56.048Z,97202.14
2019-03-12T18:55:33.866Z,97201.36
2019-03-12T18:58:03.012Z,97189.91
2019-03-12T19:00:32.165Z,97185.70
2019-03-12T19:03:00.715Z,97182.75
2019-03-12T19:05:29.199Z,97178.48
2019-03-12T19:07:57.589Z,97177.23
2019-03-12T19:10:26.005Z,97165.73
2019-03-12T19:12:54.464Z,97164.02
2019-03-12T19:15:22.934Z,97164.47
2019-03-12T19:17:51.419Z,97158.09
2019-03-12T19:20:20.466Z,97152.96
2019-03-12T19:22:48.867Z,97149.59
2019-03-12T19:25:19.963Z,97138.92
2019-03-12T19:27:59.209Z,97132.09
2019-03-12T19:30:19.544Z,97126.16
2019-03-12T19:32:49.719Z,97120.64
2019-03-12T19:35:21.145Z,97116.44
2019-03-12T19:37:49.562Z,97108.36
2019-03-12T19:40:20.866Z,97099.03
2019-03-12T19:42:49.393Z,97086.66
2019-03-12T19:45:17.775Z,97090.98
2019-03-12T19:47:46.188Z,97085.05
2019-03-12T19:50:20.017Z,97082.94
2019-03-12T19:52:48.425Z,97084.28
2019-03-12T19:55:22.934Z,97081.39
2019-03-12T19:57:51.782Z,97074.23
2019-03-12T20:00:22.183Z,97064.49
2019-03-12T20:02:52.360Z,97068.01
2019-03-12T20:05:20.810Z,97062.49
2019-03-12T20:07:49.201Z,97056.59
2019-03-12T20:10:37.321Z,97056.63
2019-03-12T20:13:11.682Z,97043.42
2019-03-12T20:15:45.924Z,97046.48
2019-03-12T20:18:22.943Z,97040.98
2019-03-12T20:21:00.211Z,97044.88
2019-03-12T20:23:52.760Z,97040.28
2019-03-12T20:26:43.907Z,97034.83
2019-03-12T20:29:46.420Z,97024.23
2019-03-12T20:32:36.846Z,97008.92
2019-03-12T20:35:24.583Z,96988.48
2019-03-12T20:38:22.496Z,96973.60
2019-03-12T20:41:09.101Z,96968.12
2019-03-12T20:44:13.734Z,96969.48
2019-03-12T20:47:07.837Z,96972.12
2019-03-12T20:49:51.078Z,96964.56
2019-03-12T20:52:45.004Z,96958.64
2019-03-12T20:55:42.023Z,96957.03
2019-03-12T20:58:36.206Z,96948.16
2019-03-12T21:01:42.778Z,96942.64
2019-03-12T21:04:36.967Z,96946.16
2019-03-12T21:07:29.573Z,96939.36
2019-03-12T21:10:18.390Z,96937.33
2019-03-12T21:13:16.898Z,96931.02
2019-03-12T21:16:10.824Z,96927.65
2019-03-12T21:19:11.233Z,96922.64
2019-03-12T21:22:03.249Z,96925.25
2019-03-12T21:24:27.628Z,96926.59
2019-03-12T21:27:22.060Z,96920.25
2019-03-12T21:29:49.855Z,96915.57
2019-03-12T21:32:19.100Z,96921.16
2019-03-12T21:34:48.026Z,96921.21
2019-03-12T21:37:16.651Z,96914.45
2019-03-12T21:39:54.588Z,96914.53
2019-03-12T21:42:15.203Z,96903.88
2019-03-12T21:44:43.692Z,96900.07
2019-03-12T21:47:12.217Z,96889.42
2019-03-12T21:49:40.600Z,96895.41
2019-03-12T21:52:09.063Z,96883.90
2019-03-12T21:54:37.472Z,96873.72
2019-03-12T21:57:05.948Z,96859.66
2019-03-12T21:59:34.322Z,96860.57
2019-03-12T22:02:02.734Z,96861.46
2019-03-12T22:04:31.091Z,96849.98
2019-03-12T22:06:59.510Z,96854.66
2019-03-12T22:09:27.887Z,96855.93
2019-03-12T22:11:56.297Z,96857.62
2019-03-12T22:14:24.706Z,96857.62
2019-03-12T22:16:53.554Z,96839.28
2019-03-12T22:19:21.933Z,96837.98
2019-03-12T22:21:54.407Z,96823.87
2019-03-12T22:24:22.775Z,96816.58
2019-03-12T22:26:51.187Z,96815.72
2019-03-12T22:29:19.561Z,96803.80
2019-03-12T22:31:47.944Z,96804.66
2019-03-12T22:34:16.335Z,96800.37
2019-03-12T22:36:44.750Z,96788.88
2019-03-12T22:39:13.143Z,96790.16
2019-03-12T22:41:41.549Z,96772.67
2019-03-12T22:44:09.959Z,96753.31
2019-03-12T22:46:38.339Z,96773.05
2019-03-12T22:49:06.735Z,96763.72
2019-03-12T22:51:35.116Z,96764.55
2019-03-12T22:54:03.500Z,96752.66
2019-03-12T22:56:31.881Z,96744.13
2019-03-12T22:59:00.290Z,96734.38
2019-03-12T23:01:28.666Z,96725.88
2019-03-12T23:03:57.055Z,96685.86
2019-03-12T23:06:28.579Z,96702.45
2019-03-12T23:08:57.078Z,96703.25
2019-03-12T23:11:25.480Z,96683.63
2019-03-12T23:13:53.862Z,96712.17
2019-03-12T23:16:22.251Z,96706.64
2019-03-12T23:18:50.666Z,96704.91
2019-03-12T23:21:19.075Z,96698.91
2019-03-12T23:23:49.017Z,96701.46
2019-03-12T23:26:17.485Z,96694.66
2019-03-12T23:28:45.972Z,96689.95
2019-03-12T23:31:14.355Z,96688.30
2019-03-12T23:33:42.856Z,96667.42
2019-03-12T23:36:11.871Z,96652.88
2019-03-12T23:38:40.222Z,96643.97
2019-03-12T23:41:08.608Z,96647.00
2019-03-12T23:43:37.069Z,96639.30
2019-03-12T23:46:05.591Z,96632.91
2019-03-12T23:48:34.073Z,96622.20
2019-03-12T23:51:02.451Z,96616.67
2019-03-12T23:53:30.853Z,96642.66
2019-03-12T23:55:59.286Z,96638.82
2019-03-12T23:58:30.352Z,96650.73
